Virginia, Minnesota
Current Conditions -  °F | °C
As of 8:31 AM on Thursday 23 Oct 2014 (Local Time) from KEVM Reporting Station
Haze Haze  
Wind Chill: 41°   Ceiling: 300
Heat Index: 45°   Visibility: 0.75mi
Dew Point: 45°   Wind: 7mph
Humidity: 100%   Direction: 190°S
Pressure: 29.95"   Gusts: NA
Location:  47.52°N, 92.53°W
Report Text: KEVM 231331Z AUTO 19006KT 3/4SM BR OVC003 07/07 A2995 RMK AO2
Loading
Personal Weather Stations






























Interactive Weather Map
Tropical Storm Tracking
New forecast layout! Learn more

10-Day Weather Forecast

Advertisements
Track Severe Weather on mobile